Time;durP1;ratioP1;P1;durP2;ratioP2;P2;SDS_P1;SDS_P2;PMS_P1;PMS_P2;Temp;Humidity;BMP_temperature;BMP_pressure;BME280_temperature;BME280_humidity;BME280_pressure;Samples;Min_cycle;Max_cycle;Signal;HPM_P1;HPM_P2
2022/11/24 00:01:27;;;;;;;37.60;21.03;;;3.50;99.90;;;;;;4145705;28;20769;-62
2022/11/24 00:03:28;;;;;;;41.30;21.90;;;3.50;99.90;;;;;;4145718;28;20321;-62
2022/11/24 00:05:29;;;;;;;42.00;20.40;;;3.60;99.90;;;;;;4145799;28;20318;-63
2022/11/24 00:07:30;;;;;;;35.67;18.00;;;3.60;99.90;;;;;;4144593;28;20416;-62
2022/11/24 00:09:32;;;;;;;35.23;18.33;;;3.50;99.90;;;;;;4145427;28;20326;-63
2022/11/24 00:11:36;;;;;;;37.70;19.20;;;3.60;99.90;;;;;;4126605;28;20292;-62
2022/11/24 00:13:40;;;;;;;34.93;18.37;;;3.60;99.90;;;;;;4146086;28;20334;-63
2022/11/24 00:15:41;;;;;;;33.47;16.37;;;3.50;99.90;;;;;;4145078;28;20679;-63
2022/11/24 00:17:42;;;;;;;31.03;16.60;;;3.60;99.90;;;;;;4146347;28;20303;-63
2022/11/24 00:19:43;;;;;;;29.57;15.77;;;3.50;99.90;;;;;;4142623;28;20283;-63
2022/11/24 00:21:45;;;;;;;32.67;17.27;;;3.50;99.90;;;;;;4145962;28;20271;-62
2022/11/24 00:23:47;;;;;;;44.13;20.53;;;3.40;99.90;;;;;;4144824;28;20326;-64
2022/11/24 00:25:48;;;;;;;50.27;27.73;;;3.30;99.90;;;;;;4146216;28;20267;-67
2022/11/24 00:27:51;;;;;;;50.10;26.13;;;3.20;99.90;;;;;;4145012;28;20322;-62
2022/11/24 00:29:52;;;;;;;53.13;27.57;;;3.10;99.90;;;;;;4146116;28;20268;-63
2022/11/24 00:31:55;;;;;;;53.47;28.73;;;3.10;99.90;;;;;;4144421;28;20298;-64
2022/11/24 00:34:03;;;;;;;63.17;28.87;;;3.00;99.90;;;;;;4145819;28;20260;-62
2022/11/24 00:36:04;;;;;;;47.50;25.67;;;3.00;99.90;;;;;;4144361;28;21258;-62
2022/11/24 00:38:05;;;;;;;56.27;27.97;;;3.00;99.90;;;;;;4145098;28;20343;-62
2022/11/24 00:40:07;;;;;;;61.63;30.27;;;3.00;99.90;;;;;;4145735;28;20290;-62
2022/11/24 00:42:08;;;;;;;59.00;28.47;;;3.00;99.90;;;;;;4144843;28;20267;-68
2022/11/24 00:44:09;;;;;;;58.03;30.00;;;3.00;99.90;;;;;;4145491;28;20259;-61
2022/11/24 00:46:10;;;;;;;54.13;28.53;;;3.00;99.90;;;;;;4143099;28;20279;-62
2022/11/24 00:48:13;;;;;;;68.67;32.27;;;3.00;99.90;;;;;;4145847;28;20309;-61
2022/11/24 00:50:14;;;;;;;68.17;32.17;;;3.00;99.90;;;;;;4144213;28;20268;-63
2022/11/24 00:52:15;;;;;;;55.17;30.83;;;3.00;99.90;;;;;;4145595;28;20279;-62
2022/11/24 00:54:17;;;;;;;60.87;30.57;;;3.00;99.90;;;;;;4144581;28;20589;-63
2022/11/24 00:56:18;;;;;;;53.63;30.20;;;3.00;99.90;;;;;;4144824;28;20256;-66
2022/11/24 00:58:19;;;;;;;53.27;28.87;;;3.00;99.90;;;;;;4144326;28;21140;-62
2022/11/24 01:00:21;;;;;;;51.57;27.67;;;3.00;99.90;;;;;;4145842;28;20325;-62
2022/11/24 01:02:22;;;;;;;53.23;29.30;;;3.00;99.90;;;;;;4144423;28;20267;-63
2022/11/24 01:04:23;;;;;;;51.10;28.77;;;3.00;99.90;;;;;;4144985;28;20334;-62
2022/11/24 01:06:25;;;;;;;57.83;30.57;;;3.10;99.90;;;;;;4144645;28;20751;-63
2022/11/24 01:08:27;;;;;;;54.43;27.83;;;3.10;99.90;;;;;;4145024;28;20291;-63
2022/11/24 01:10:28;;;;;;;50.40;28.03;;;3.20;99.90;;;;;;4144471;28;20267;-61
2022/11/24 01:12:29;;;;;;;52.47;26.97;;;3.20;99.90;;;;;;4143779;28;20330;-68
2022/11/24 01:14:31;;;;;;;51.47;28.07;;;3.20;99.90;;;;;;4144382;28;20267;-62
2022/11/24 01:16:34;;;;;;;50.93;28.40;;;3.30;99.90;;;;;;4143873;28;20271;-63
2022/11/24 01:18:35;;;;;;;54.90;27.27;;;3.30;99.90;;;;;;4145199;28;20802;-63
2022/11/24 01:20:36;;;;;;;54.27;29.00;;;3.30;99.90;;;;;;4143820;28;20308;-63
2022/11/24 01:22:38;;;;;;;52.50;27.87;;;3.30;99.90;;;;;;4145356;28;20263;-62
2022/11/24 01:24:39;;;;;;;53.17;29.50;;;3.40;99.90;;;;;;4144074;28;20259;-62
2022/11/24 01:26:41;;;;;;;55.83;28.93;;;3.40;99.90;;;;;;4145573;28;20271;-62
2022/11/24 01:28:42;;;;;;;53.97;28.60;;;3.40;99.90;;;;;;4126494;28;20280;-64
2022/11/24 01:30:45;;;;;;;60.53;29.50;;;3.40;99.90;;;;;;4143952;28;20361;-63
2022/11/24 01:32:47;;;;;;;60.50;30.17;;;3.40;99.90;;;;;;4126158;28;20338;-65
2022/11/24 01:34:48;;;;;;;51.97;27.67;;;3.40;99.90;;;;;;4145478;28;20271;-61
2022/11/24 01:36:49;;;;;;;52.90;28.60;;;3.30;99.90;;;;;;4144258;28;20297;-63
2022/11/24 01:38:50;;;;;;;56.53;30.63;;;3.30;99.90;;;;;;4144889;28;20322;-63
2022/11/24 01:41:05;;;;;;;58.33;29.17;;;3.30;99.90;;;;;;4145079;28;20260;-64
2022/11/24 01:43:16;;;;;;;55.37;29.30;;;3.30;99.90;;;;;;4127263;28;20323;-66
2022/11/24 01:45:40;;;;;;;52.33;27.07;;;3.40;99.90;;;;;;4143310;28;20330;-62
2022/11/24 01:47:41;;;;;;;51.37;28.23;;;3.40;99.90;;;;;;4144300;28;20337;-64
2022/11/24 01:49:53;;;;;;;49.20;26.73;;;3.50;99.90;;;;;;4143674;28;20289;-68
2022/11/24 01:51:59;;;;;;;52.60;28.17;;;3.60;99.90;;;;;;4144689;28;20267;-62
2022/11/24 01:54:06;;;;;;;47.50;27.47;;;3.60;99.90;;;;;;4126365;28;20260;-63
2022/11/24 01:56:08;;;;;;;54.13;29.23;;;3.70;99.90;;;;;;4144832;28;20291;-64
2022/11/24 01:58:17;;;;;;;56.60;27.80;;;3.60;99.90;;;;;;4144303;28;20675;-63
2022/11/24 02:00:19;;;;;;;55.60;28.08;;;3.60;99.90;;;;;;4143628;28;20330;-63
2022/11/24 02:02:20;;;;;;;54.73;28.30;;;3.60;99.90;;;;;;4143761;28;20049;-65
2022/11/24 02:04:28;;;;;;;49.30;28.33;;;3.60;99.90;;;;;;4144574;28;20822;-63
2022/11/24 02:06:32;;;;;;;53.23;27.90;;;3.60;99.90;;;;;;4144707;28;20263;-63
2022/11/24 02:08:48;;;;;;;46.93;27.30;;;3.60;99.90;;;;;;4143628;28;20696;-65
2022/11/24 02:10:49;;;;;;;54.07;28.40;;;3.60;99.90;;;;;;4144868;28;20263;-63
2022/11/24 02:12:53;;;;;;;53.37;27.67;;;3.60;99.90;;;;;;4143648;28;20332;-63
2022/11/24 02:14:55;;;;;;;50.93;28.47;;;3.60;99.90;;;;;;4147069;28;20691;-64
2022/11/24 02:16:56;;;;;;;51.00;27.47;;;3.50;99.90;;;;;;4146140;28;20338;-63
2022/11/24 02:18:57;;;;;;;53.23;27.30;;;3.50;99.90;;;;;;4148066;28;20613;-63
2022/11/24 02:20:59;;;;;;;50.30;27.23;;;3.50;99.90;;;;;;4146337;28;20287;-62
2022/11/24 02:23:10;;;;;;;53.63;26.80;;;3.50;99.90;;;;;;4147493;28;20267;-64
2022/11/24 02:25:28;;;;;;;49.93;26.27;;;3.50;99.90;;;;;;4146841;28;20256;-61
2022/11/24 02:27:29;;;;;;;51.07;27.27;;;3.40;99.90;;;;;;4147950;28;20384;-67
2022/11/24 02:29:30;;;;;;;46.50;26.50;;;3.40;99.90;;;;;;4146825;28;20329;-63
2022/11/24 02:31:32;;;;;;;45.93;25.30;;;3.50;99.90;;;;;;4147681;28;20291;-61
2022/11/24 02:33:34;;;;;;;48.33;27.17;;;3.50;99.90;;;;;;4146601;28;20260;-62
2022/11/24 02:35:35;;;;;;;47.43;27.20;;;3.60;99.90;;;;;;4147540;28;20768;-62
2022/11/24 02:37:36;;;;;;;46.20;25.17;;;3.60;99.90;;;;;;4146234;28;20279;-62
2022/11/24 02:39:37;;;;;;;48.27;26.03;;;3.60;99.90;;;;;;4147576;28;20330;-67
2022/11/24 02:41:49;;;;;;;49.27;26.90;;;3.70;99.90;;;;;;4146326;28;20275;-62
2022/11/24 02:44:00;;;;;;;49.27;25.97;;;3.70;99.90;;;;;;4145860;28;20291;-62
2022/11/24 02:46:01;;;;;;;48.50;26.40;;;3.80;99.90;;;;;;4145899;28;20647;-65
2022/11/24 02:48:02;;;;;;;45.40;27.10;;;3.80;99.90;;;;;;4146310;28;20279;-63
2022/11/24 02:50:04;;;;;;;48.03;26.13;;;3.80;99.90;;;;;;4146942;28;20267;-64
2022/11/24 02:52:06;;;;;;;48.10;26.83;;;3.80;99.90;;;;;;4146383;28;20293;-62
2022/11/24 02:54:07;;;;;;;48.23;27.13;;;3.80;99.90;;;;;;4147009;28;20361;-63
2022/11/24 02:56:08;;;;;;;58.33;29.67;;;3.80;99.90;;;;;;4146083;28;20314;-64
2022/11/24 02:58:09;;;;;;;57.33;28.17;;;3.70;99.90;;;;;;4146421;28;20264;-63
2022/11/24 03:00:11;;;;;;;53.80;28.67;;;3.70;99.90;;;;;;4145456;28;20306;-64
2022/11/24 03:02:12;;;;;;;59.00;29.07;;;3.60;99.90;;;;;;4146856;28;20823;-63
2022/11/24 03:04:13;;;;;;;53.13;28.77;;;3.60;99.90;;;;;;4146333;28;20264;-63
2022/11/24 03:06:14;;;;;;;52.80;29.63;;;3.60;99.90;;;;;;4147514;28;20337;-70
2022/11/24 03:08:15;;;;;;;52.73;29.53;;;3.60;99.90;;;;;;4146312;28;20286;-66
2022/11/24 03:10:17;;;;;;;57.67;29.93;;;3.50;99.90;;;;;;4147686;28;20276;-62
2022/11/24 03:12:18;;;;;;;53.67;29.03;;;3.60;99.90;;;;;;4146229;28;20310;-65
2022/11/24 03:14:19;;;;;;;54.73;30.50;;;3.50;99.90;;;;;;4147022;28;20333;-64
2022/11/24 03:16:20;;;;;;;59.53;29.57;;;3.50;99.90;;;;;;4145137;28;20703;-61
2022/11/24 03:18:21;;;;;;;54.50;29.57;;;3.50;99.90;;;;;;4145584;28;20271;-62
2022/11/24 03:20:23;;;;;;;53.03;28.00;;;3.60;99.90;;;;;;4146028;28;20255;-62
2022/11/24 03:22:24;;;;;;;52.70;28.87;;;3.70;99.90;;;;;;4146187;28;20275;-65
2022/11/24 03:24:26;;;;;;;49.00;28.50;;;3.70;99.90;;;;;;4145224;28;20272;-63
2022/11/24 03:26:27;;;;;;;49.43;27.67;;;3.80;99.90;;;;;;4145721;28;20743;-64
2022/11/24 03:28:28;;;;;;;49.07;27.50;;;3.70;99.90;;;;;;4146814;28;20363;-63
2022/11/24 03:30:29;;;;;;;52.27;27.40;;;3.70;99.90;;;;;;4145845;28;20613;-62
2022/11/24 03:32:30;;;;;;;44.77;25.43;;;3.70;99.90;;;;;;4146548;28;20602;-64
2022/11/24 03:34:31;;;;;;;50.87;26.20;;;3.70;99.90;;;;;;4145766;28;20256;-63
2022/11/24 03:36:32;;;;;;;55.00;26.43;;;3.70;99.90;;;;;;4146824;28;20299;-62
2022/11/24 03:38:33;;;;;;;49.27;25.77;;;3.70;99.90;;;;;;4145016;28;20271;-62
2022/11/24 03:40:34;;;;;;;49.63;26.87;;;3.70;99.90;;;;;;4147000;28;20816;-62
2022/11/24 03:42:36;;;;;;;48.37;26.50;;;3.70;99.90;;;;;;4145072;28;20260;-63
2022/11/24 03:44:37;;;;;;;48.70;26.67;;;3.70;99.90;;;;;;4146743;28;20326;-64
2022/11/24 03:46:38;;;;;;;50.33;27.27;;;3.70;99.90;;;;;;4145462;28;20279;-63
2022/11/24 03:48:39;;;;;;;51.87;28.60;;;3.80;99.90;;;;;;4146045;28;20264;-63
2022/11/24 03:50:40;;;;;;;47.90;27.90;;;3.80;99.90;;;;;;4145751;28;20279;-63
2022/11/24 03:52:41;;;;;;;45.40;25.87;;;3.80;99.90;;;;;;4145773;28;20291;-64
2022/11/24 03:54:42;;;;;;;50.30;27.13;;;3.80;99.90;;;;;;4145465;28;20248;-64
2022/11/24 03:56:43;;;;;;;55.93;28.37;;;3.80;99.90;;;;;;4145511;28;20694;-67
2022/11/24 03:58:45;;;;;;;49.70;27.83;;;3.90;99.90;;;;;;4146242;28;20333;-62
2022/11/24 04:00:51;;;;;;;49.80;28.30;;;3.90;99.90;;;;;;4145062;28;20275;-63
2022/11/24 04:02:53;;;;;;;49.43;25.97;;;4.00;99.90;;;;;;4145699;28;20264;-62
2022/11/24 04:04:54;;;;;;;51.37;29.07;;;3.90;99.90;;;;;;4144753;28;20346;-66
2022/11/24 04:06:55;;;;;;;55.87;29.67;;;4.00;99.90;;;;;;4145748;28;20625;-65
2022/11/24 04:08:56;;;;;;;62.60;34.40;;;3.90;99.90;;;;;;4145386;28;20585;-62
2022/11/24 04:10:58;;;;;;;52.23;29.33;;;3.90;99.90;;;;;;4146459;28;20263;-62
2022/11/24 04:12:59;;;;;;;47.20;26.33;;;3.90;99.90;;;;;;4144303;28;20280;-62
2022/11/24 04:15:00;;;;;;;47.03;27.30;;;3.90;99.90;;;;;;4145710;28;20743;-62
2022/11/24 04:17:03;;;;;;;48.43;25.87;;;3.90;99.90;;;;;;4144248;28;20303;-62
2022/11/24 04:19:05;;;;;;;40.03;22.87;;;3.90;99.90;;;;;;4145748;28;20339;-62
2022/11/24 04:21:06;;;;;;;48.83;28.27;;;3.80;99.90;;;;;;4142950;28;20310;-64
2022/11/24 04:23:09;;;;;;;46.23;26.27;;;3.80;99.90;;;;;;4145540;28;20357;-62
2022/11/24 04:25:10;;;;;;;53.60;28.00;;;3.90;99.90;;;;;;4145168;28;20314;-62
2022/11/24 04:27:11;;;;;;;50.33;27.00;;;3.90;99.90;;;;;;4145217;28;20623;-63
2022/11/24 04:29:12;;;;;;;48.83;27.27;;;3.90;99.90;;;;;;4145613;28;20314;-63
2022/11/24 04:31:14;;;;;;;47.50;27.47;;;3.90;99.90;;;;;;4143820;28;20354;-63
2022/11/24 04:33:15;;;;;;;46.53;26.87;;;3.90;99.90;;;;;;4145052;28;20322;-66
2022/11/24 04:35:16;;;;;;;47.50;28.03;;;3.90;99.90;;;;;;4144566;28;20345;-62
2022/11/24 04:37:18;;;;;;;55.53;28.93;;;3.90;99.90;;;;;;4145536;28;20276;-62
2022/11/24 04:39:19;;;;;;;46.87;27.47;;;3.80;99.90;;;;;;4144876;28;20268;-63
2022/11/24 04:41:20;;;;;;;54.30;27.73;;;3.90;99.90;;;;;;4145663;28;20283;-63
2022/11/24 04:43:21;;;;;;;46.43;26.90;;;3.90;99.90;;;;;;4143698;28;20345;-63
2022/11/24 04:45:23;;;;;;;47.87;25.80;;;3.80;99.90;;;;;;4144152;28;20329;-64
2022/11/24 04:47:25;;;;;;;48.77;25.57;;;3.80;99.90;;;;;;4144244;28;20329;-62
2022/11/24 04:49:26;;;;;;;57.20;29.70;;;3.90;99.90;;;;;;4145670;28;20702;-63
2022/11/24 04:51:29;;;;;;;49.47;27.40;;;3.80;99.90;;;;;;4144504;28;20268;-63
2022/11/24 04:53:30;;;;;;;49.10;27.73;;;3.80;99.90;;;;;;4145169;28;20259;-61
2022/11/24 04:55:31;;;;;;;49.37;28.20;;;3.80;99.90;;;;;;4143963;28;20346;-62
2022/11/24 04:57:32;;;;;;;48.03;27.57;;;3.90;99.90;;;;;;4144116;28;20317;-68
2022/11/24 04:59:33;;;;;;;55.60;28.20;;;3.90;99.90;;;;;;4143551;28;20287;-63
2022/11/24 05:01:34;;;;;;;51.47;27.87;;;3.90;99.90;;;;;;4144159;28;20263;-67
2022/11/24 05:03:36;;;;;;;54.83;28.33;;;3.90;99.90;;;;;;4145353;28;20380;-66
2022/11/24 05:05:37;;;;;;;46.67;27.73;;;3.90;99.90;;;;;;4144294;28;20330;-62
2022/11/24 05:07:38;;;;;;;51.30;28.40;;;4.00;99.90;;;;;;4145029;28;20303;-62
2022/11/24 05:10:33;;;;;;;50.83;28.00;;;4.00;99.90;;;;;;4143692;28;20271;-62
2022/11/24 05:12:00;;;;;;;53.77;28.43;;;4.00;99.90;;;;;;4145426;28;20283;-62
2022/11/24 05:14:01;;;;;;;52.40;29.43;;;4.10;99.90;;;;;;4143619;28;20748;-65
2022/11/24 05:16:03;;;;;;;46.40;26.60;;;4.10;99.90;;;;;;4144361;28;20303;-63
2022/11/24 05:18:11;;;;;;;55.23;27.17;;;4.10;99.90;;;;;;4143277;28;20275;-65
2022/11/24 05:20:12;;;;;;;49.53;26.70;;;4.10;99.90;;;;;;4127386;28;20686;-66
2022/11/24 05:22:13;;;;;;;47.67;27.03;;;4.10;99.90;;;;;;4143574;28;20338;-62
2022/11/24 05:24:14;;;;;;;57.10;27.43;;;4.20;99.90;;;;;;4144325;28;20280;-65
2022/11/24 05:26:15;;;;;;;48.53;26.50;;;4.20;99.90;;;;;;4136789;28;20776;-62
2022/11/24 05:28:17;;;;;;;50.80;28.27;;;4.20;99.90;;;;;;4143934;28;20748;-64
2022/11/24 05:30:18;;;;;;;48.53;27.77;;;4.20;99.90;;;;;;4143865;28;20421;-65
2022/11/24 05:32:20;;;;;;;53.40;28.73;;;4.30;99.90;;;;;;4143524;28;20264;-63
2022/11/24 05:34:21;;;;;;;48.70;28.83;;;4.30;99.90;;;;;;4144265;28;20358;-63
2022/11/24 05:38:41;;;;;;;57.67;33.63;;;4.30;99.90;;;;;;4144010;28;20294;-67
2022/11/24 05:40:42;;;;;;;63.97;37.27;;;4.30;99.90;;;;;;4143782;28;20279;-63
2022/11/24 05:42:44;;;;;;;68.27;36.13;;;4.40;99.90;;;;;;4144661;28;20092;-62
2022/11/24 05:44:45;;;;;;;71.77;39.70;;;4.30;99.90;;;;;;4144230;28;20294;-63
2022/11/24 05:46:46;;;;;;;79.30;42.27;;;4.30;99.90;;;;;;4144529;28;20644;-66
2022/11/24 05:48:47;;;;;;;82.13;43.07;;;4.30;99.90;;;;;;4145438;28;20337;-63
2022/11/24 05:50:56;;;;;;;67.07;37.13;;;4.30;99.90;;;;;;4147672;28;20694;-64
2022/11/24 05:53:04;;;;;;;67.87;37.57;;;4.30;99.90;;;;;;4146596;28;20034;-63
2022/11/24 05:55:07;;;;;;;62.33;35.27;;;4.30;99.90;;;;;;4148064;28;20022;-64
2022/11/24 05:57:08;;;;;;;58.03;34.03;;;4.40;99.90;;;;;;4144960;28;20104;-64
2022/11/24 05:59:09;;;;;;;54.43;31.00;;;4.30;99.90;;;;;;4147013;28;20287;-64
2022/11/24 06:01:10;;;;;;;54.40;30.70;;;4.40;99.90;;;;;;4145835;28;20445;-61
2022/11/24 06:03:12;;;;;;;50.77;29.97;;;4.40;99.90;;;;;;4146124;28;20432;-63
2022/11/24 06:05:13;;;;;;;54.10;30.27;;;4.40;99.90;;;;;;4146819;28;20026;-64
2022/11/24 06:07:14;;;;;;;46.37;28.10;;;4.40;99.90;;;;;;4147630;28;20489;-62
2022/11/24 06:09:16;;;;;;;48.83;28.23;;;4.50;99.90;;;;;;4145885;28;20325;-62
2022/11/24 06:11:17;;;;;;;51.80;29.03;;;4.50;99.90;;;;;;4146792;28;20099;-63
2022/11/24 06:13:18;;;;;;;52.97;31.13;;;4.50;99.90;;;;;;4145696;28;20548;-62
2022/11/24 06:15:19;;;;;;;51.27;30.20;;;4.50;99.90;;;;;;4146436;28;20034;-63
2022/11/24 06:17:20;;;;;;;63.97;31.40;;;4.50;99.90;;;;;;4146893;28;20084;-63
2022/11/24 06:19:21;;;;;;;56.77;29.70;;;4.50;99.90;;;;;;4146659;28;20084;-64
2022/11/24 06:21:23;;;;;;;54.83;29.40;;;4.50;99.90;;;;;;4145747;28;20473;-66
2022/11/24 06:23:24;;;;;;;43.83;22.80;;;4.50;99.90;;;;;;4146021;28;20263;-63
2022/11/24 06:25:25;;;;;;;37.67;23.87;;;4.60;99.90;;;;;;4147668;28;20272;-64
2022/11/24 06:27:26;;;;;;;34.53;21.33;;;4.60;99.90;;;;;;4146839;28;20034;-64
2022/11/24 06:29:27;;;;;;;41.40;22.77;;;4.60;99.90;;;;;;4147656;28;20259;-67
2022/11/24 06:31:29;;;;;;;38.47;23.47;;;4.70;99.90;;;;;;4146213;28;20088;-66
2022/11/24 06:33:39;;;;;;;39.97;22.47;;;4.70;99.90;;;;;;4146688;28;20334;-64
2022/11/24 06:35:40;;;;;;;42.20;23.65;;;4.70;99.90;;;;;;4144488;28;20994;-64
2022/11/24 06:37:41;;;;;;;39.33;23.83;;;4.70;99.90;;;;;;4147149;28;20041;-63
2022/11/24 06:39:42;;;;;;;40.27;24.40;;;4.70;99.90;;;;;;4146045;28;20329;-62
2022/11/24 06:41:43;;;;;;;35.30;21.83;;;4.70;99.90;;;;;;4147465;28;20037;-64
2022/11/24 06:43:45;;;;;;;38.63;22.03;;;4.70;99.90;;;;;;4128858;28;20388;-62
2022/11/24 06:45:50;;;;;;;38.13;23.03;;;4.70;99.90;;;;;;4146372;28;20041;-63
2022/11/24 06:47:55;;;;;;;37.27;23.80;;;4.70;99.90;;;;;;4146367;28;20564;-63
2022/11/24 06:49:56;;;;;;;37.50;22.83;;;4.60;99.90;;;;;;4146098;28;20642;-65
2022/11/24 06:51:57;;;;;;;38.17;22.43;;;4.70;99.90;;;;;;4146961;28;20434;-63
2022/11/24 06:53:59;;;;;;;42.97;21.90;;;4.60;99.90;;;;;;4146032;28;20387;-63
2022/11/24 06:56:01;;;;;;;41.80;23.27;;;4.60;99.90;;;;;;4146339;28;20026;-63
2022/11/24 06:58:03;;;;;;;37.20;23.43;;;4.70;99.90;;;;;;4145394;28;20096;-64
2022/11/24 07:00:06;;;;;;;38.90;22.83;;;4.70;99.90;;;;;;4146637;28;20375;-63
2022/11/24 07:02:09;;;;;;;33.47;21.40;;;4.60;99.90;;;;;;4145357;28;20104;-62
2022/11/24 07:04:10;;;;;;;38.60;23.40;;;4.60;99.90;;;;;;4146643;28;20100;-63
2022/11/24 07:06:11;;;;;;;39.57;22.90;;;4.70;99.90;;;;;;4145543;28;20042;-65
2022/11/24 07:08:13;;;;;;;45.17;24.23;;;4.70;99.90;;;;;;4146916;28;20026;-63
2022/11/24 07:10:14;;;;;;;42.60;24.87;;;4.70;99.90;;;;;;4145481;28;20029;-65
2022/11/24 07:12:15;;;;;;;47.07;26.03;;;4.70;99.90;;;;;;4147455;28;20026;-63
2022/11/24 07:14:17;;;;;;;47.97;29.13;;;4.70;99.90;;;;;;4145397;28;20321;-65
2022/11/24 07:16:24;;;;;;;48.80;29.67;;;4.70;99.90;;;;;;4145860;28;20049;-65
2022/11/24 07:18:25;;;;;;;42.07;26.70;;;4.70;99.90;;;;;;4144929;28;20042;-63
2022/11/24 07:20:26;;;;;;;48.53;27.53;;;4.80;99.90;;;;;;4145715;28;20045;-64
2022/11/24 07:22:27;;;;;;;41.97;26.53;;;4.80;99.90;;;;;;4145426;28;20280;-65
2022/11/24 07:24:28;;;;;;;46.77;26.27;;;4.80;99.90;;;;;;4145917;28;20092;-65
2022/11/24 07:26:29;;;;;;;47.43;27.53;;;4.80;99.90;;;;;;4128599;28;20331;-65
2022/11/24 07:28:31;;;;;;;45.80;27.40;;;4.80;99.90;;;;;;4145852;28;20022;-65
2022/11/24 07:30:32;;;;;;;47.57;27.47;;;4.80;99.90;;;;;;4146314;28;20046;-63
2022/11/24 07:32:33;;;;;;;49.97;28.57;;;4.80;99.90;;;;;;4145402;28;20711;-62
2022/11/24 07:34:34;;;;;;;42.93;27.73;;;4.80;99.90;;;;;;4146255;28;20090;-65
2022/11/24 07:36:35;;;;;;;52.30;28.60;;;4.80;99.90;;;;;;4145122;28;20441;-62
2022/11/24 07:38:36;;;;;;;51.90;30.93;;;4.90;99.90;;;;;;4146769;28;20034;-63
2022/11/24 07:40:38;;;;;;;56.57;29.33;;;4.90;99.90;;;;;;4145663;28;20037;-63
2022/11/24 07:42:39;;;;;;;59.97;32.50;;;4.90;99.90;;;;;;4146909;28;20080;-64
2022/11/24 07:44:40;;;;;;;46.93;30.13;;;4.90;99.90;;;;;;4144873;28;20077;-61
2022/11/24 07:46:41;;;;;;;49.97;30.23;;;4.90;99.90;;;;;;4146672;28;20050;-63
2022/11/24 07:48:42;;;;;;;54.27;29.17;;;4.90;99.90;;;;;;4145262;28;20026;-64
2022/11/24 07:50:44;;;;;;;50.80;29.17;;;4.90;99.90;;;;;;4146229;28;20291;-63
2022/11/24 07:52:45;;;;;;;53.67;31.03;;;5.00;99.90;;;;;;4145722;28;20100;-65
2022/11/24 07:54:46;;;;;;;56.90;31.67;;;5.00;99.90;;;;;;4145905;28;20042;-62
2022/11/24 07:56:48;;;;;;;61.60;35.07;;;5.10;99.90;;;;;;4145866;28;20123;-65
2022/11/24 07:58:50;;;;;;;55.93;33.57;;;5.10;99.90;;;;;;4145258;28;20529;-63
2022/11/24 08:00:51;;;;;;;55.47;30.73;;;5.10;99.90;;;;;;4145570;28;20068;-64
2022/11/24 08:02:52;;;;;;;67.30;31.67;;;5.20;99.90;;;;;;4144536;28;20413;-62
2022/11/24 08:04:54;;;;;;;47.63;28.70;;;5.10;99.90;;;;;;4145445;28;20407;-63
2022/11/24 08:06:55;;;;;;;47.37;29.43;;;5.20;99.90;;;;;;4145290;28;20025;-63
2022/11/24 08:08:57;;;;;;;47.47;27.70;;;5.20;99.90;;;;;;4145821;28;20477;-67
2022/11/24 08:11:02;;;;;;;42.07;28.07;;;5.20;99.90;;;;;;4143966;28;20057;-65
2022/11/24 08:13:03;;;;;;;39.90;25.23;;;5.30;99.90;;;;;;4146618;28;20088;-67
2022/11/24 08:15:06;;;;;;;37.50;23.10;;;5.30;99.90;;;;;;4144608;28;20050;-62
2022/11/24 08:17:07;;;;;;;37.93;24.23;;;5.30;99.90;;;;;;4146068;28;20029;-63
2022/11/24 08:19:10;;;;;;;40.43;23.10;;;5.40;99.90;;;;;;4144884;28;20080;-64
2022/11/24 08:21:13;;;;;;;32.37;21.77;;;5.40;99.90;;;;;;4145957;28;20033;-64
2022/11/24 08:23:14;;;;;;;32.47;20.63;;;5.50;99.90;;;;;;4144728;28;20364;-67
2022/11/24 08:25:17;;;;;;;29.33;19.17;;;5.50;99.90;;;;;;4145544;28;20080;-62
2022/11/24 08:27:18;;;;;;;30.93;19.43;;;5.50;99.90;;;;;;4145170;28;20030;-63
2022/11/24 08:29:19;;;;;;;26.67;17.17;;;5.60;99.90;;;;;;4144965;28;20022;-66
2022/11/24 08:31:21;;;;;;;26.87;15.93;;;5.60;99.90;;;;;;4144960;28;20093;-62
2022/11/24 08:33:22;;;;;;;18.70;12.83;;;5.70;99.90;;;;;;4143886;28;20548;-63
2022/11/24 08:35:23;;;;;;;39.47;22.17;;;5.70;99.90;;;;;;4145114;28;20064;-64
2022/11/24 08:37:26;;;;;;;48.17;27.40;;;5.80;99.90;;;;;;4126901;28;20054;-63
2022/11/24 08:39:27;;;;;;;51.00;29.90;;;5.80;99.90;;;;;;4145173;28;20049;-62
2022/11/24 08:41:29;;;;;;;41.63;26.37;;;5.70;99.90;;;;;;4144903;28;20080;-63
2022/11/24 08:43:31;;;;;;;44.47;25.77;;;5.70;99.90;;;;;;4145183;28;20042;-63
2022/11/24 08:45:32;;;;;;;53.20;30.13;;;5.80;99.90;;;;;;4144117;28;20049;-62
2022/11/24 08:47:33;;;;;;;43.83;25.50;;;5.80;99.90;;;;;;4145364;28;20038;-62
2022/11/24 08:49:34;;;;;;;41.77;23.27;;;5.90;99.90;;;;;;4144480;28;20010;-62
2022/11/24 08:51:36;;;;;;;36.90;23.30;;;5.90;99.90;;;;;;4128031;28;20376;-63
2022/11/24 08:53:38;;;;;;;46.40;24.63;;;6.00;99.90;;;;;;4143902;28;20038;-66
2022/11/24 08:55:39;;;;;;;28.53;14.73;;;6.00;99.90;;;;;;4145361;28;20534;-62
2022/11/24 08:57:40;;;;;;;23.43;13.67;;;6.00;99.90;;;;;;4143933;28;20046;-62
2022/11/24 08:59:41;;;;;;;32.27;18.90;;;6.10;99.90;;;;;;4145003;28;20088;-62
2022/11/24 09:01:43;;;;;;;28.83;17.90;;;6.10;99.90;;;;;;4144102;28;20076;-64
2022/11/24 09:03:47;;;;;;;23.80;15.30;;;6.10;99.90;;;;;;4144194;28;20034;-62
2022/11/24 09:05:48;;;;;;;24.63;15.33;;;6.10;99.90;;;;;;4144614;28;20041;-62
2022/11/24 09:07:49;;;;;;;22.57;13.80;;;6.10;99.90;;;;;;4144354;28;20038;-62
2022/11/24 09:09:51;;;;;;;20.57;13.10;;;6.20;99.90;;;;;;4145433;28;20068;-64
2022/11/24 09:11:52;;;;;;;18.63;10.93;;;6.20;99.90;;;;;;4144223;28;20099;-64
2022/11/24 09:13:54;;;;;;;14.60;8.80;;;6.30;99.90;;;;;;4145514;28;20475;-62
2022/11/24 09:15:55;;;;;;;13.47;9.50;;;6.20;99.90;;;;;;4143403;28;20054;-62
2022/11/24 09:17:56;;;;;;;15.13;9.63;;;6.30;99.90;;;;;;4145038;28;20490;-64
2022/11/24 09:19:58;;;;;;;13.33;8.90;;;6.30;99.90;;;;;;4144030;28;20104;-66
2022/11/24 09:21:59;;;;;;;13.87;8.70;;;6.30;99.90;;;;;;4144971;28;20093;-64
2022/11/24 09:24:00;;;;;;;13.53;8.70;;;6.30;99.90;;;;;;4143627;28;20552;-64
2022/11/24 09:26:06;;;;;;;12.93;7.77;;;6.30;99.90;;;;;;4144516;28;20557;-64
2022/11/24 09:28:07;;;;;;;12.50;7.70;;;6.30;99.90;;;;;;4144091;28;20072;-64
2022/11/24 09:30:09;;;;;;;11.80;6.93;;;6.30;99.90;;;;;;4144915;28;20026;-64
2022/11/24 09:32:10;;;;;;;9.47;5.83;;;6.40;99.90;;;;;;4144333;28;20042;-63
2022/11/24 09:34:14;;;;;;;8.70;5.17;;;6.30;99.90;;;;;;4144453;28;20215;-63
2022/11/24 09:36:15;;;;;;;10.57;5.07;;;6.40;99.90;;;;;;4144725;28;20033;-64
2022/11/24 09:38:16;;;;;;;6.90;4.07;;;6.40;99.90;;;;;;4143897;28;20042;-63
2022/11/24 09:40:18;;;;;;;5.40;2.80;;;6.40;99.90;;;;;;4144958;28;20030;-63
2022/11/24 09:42:38;;;;;;;5.70;3.03;;;6.40;99.90;;;;;;4143293;28;20093;-63
2022/11/24 09:44:58;;;;;;;5.57;3.08;;;6.40;99.90;;;;;;4144149;28;20037;-64
2022/11/24 09:46:59;;;;;;;5.13;2.92;;;6.40;99.90;;;;;;4142931;28;20132;-63
2022/11/24 09:49:03;;;;;;;3.27;2.53;;;6.40;99.90;;;;;;4144786;28;20022;-63
2022/11/24 09:51:04;;;;;;;4.50;2.50;;;6.40;99.90;;;;;;4143692;28;20072;-64
2022/11/24 09:53:23;;;;;;;3.77;2.20;;;6.40;99.90;;;;;;4144243;28;20097;-63
2022/11/24 09:55:31;;;;;;;4.27;2.47;;;6.40;99.90;;;;;;4143235;28;20103;-65
2022/11/24 09:57:35;;;;;;;3.90;2.20;;;6.40;99.90;;;;;;4144861;28;20042;-63
2022/11/24 09:59:38;;;;;;;4.07;1.93;;;6.30;99.90;;;;;;4143811;28;20075;-63
2022/11/24 10:01:41;;;;;;;3.63;1.90;;;6.30;99.90;;;;;;4144331;28;20104;-63
2022/11/24 10:03:46;;;;;;;4.50;2.10;;;6.30;99.90;;;;;;4142559;28;20133;-62
2022/11/24 10:05:50;;;;;;;2.93;1.50;;;6.30;99.90;;;;;;4144855;28;20022;-63
2022/11/24 10:08:07;;;;;;;4.43;2.20;;;6.30;99.90;;;;;;4143616;28;20080;-64
2022/11/24 10:10:31;;;;;;;4.40;1.83;;;6.30;99.90;;;;;;4144819;28;20363;-65
2022/11/24 10:13:01;;;;;;;4.00;2.70;;;6.30;99.90;;;;;;4142730;28;20042;-63
2022/11/24 10:15:11;;;;;;;3.00;1.90;;;6.20;99.90;;;;;;4109998;28;20072;-63
2022/11/24 10:17:33;;;;;;;3.20;2.40;;;6.20;99.90;;;;;;4143270;28;20096;-63
2022/11/24 10:19:50;;;;;;;3.70;2.13;;;6.20;99.90;;;;;;4143973;28;20054;-63
2022/11/24 10:21:58;;;;;;;5.90;2.37;;;6.20;99.90;;;;;;4143499;28;20108;-63
2022/11/24 10:24:22;;;;;;;4.40;2.20;;;6.20;99.90;;;;;;4144184;28;20113;-63
2022/11/24 10:26:38;;;;;;;2.20;1.47;;;6.20;99.90;;;;;;4143541;28;20118;-63
2022/11/24 10:28:48;;;;;;;3.33;1.40;;;6.20;99.90;;;;;;4143484;28;20084;-64
2022/11/24 10:31:09;;;;;;;3.20;1.50;;;6.20;99.90;;;;;;4143659;28;20182;-63
2022/11/24 10:33:21;;;;;;;6.83;2.37;;;6.20;99.90;;;;;;4142357;28;20100;-64
2022/11/24 10:35:46;;;;;;;2.63;1.80;;;6.20;99.90;;;;;;4146985;28;20022;-64